createdAt,value
2023-01-19T00:01:28.329Z,8.85
2023-01-19T00:03:56.568Z,9.63
2023-01-19T00:06:24.911Z,9.82
2023-01-19T00:08:53.196Z,10.68
2023-01-19T00:11:24.886Z,10.25
2023-01-19T00:13:54.211Z,9.65
2023-01-19T00:16:24.194Z,12.63
2023-01-19T00:18:53.896Z,7.13
2023-01-19T00:21:24.560Z,11.40
2023-01-19T00:23:53.092Z,10.65
2023-01-19T00:26:23.089Z,12.27
2023-01-19T00:28:53.046Z,11.57
2023-01-19T00:31:23.105Z,12.15
2023-01-19T00:33:52.786Z,12.18
2023-01-19T00:36:22.790Z,12.60
2023-01-19T00:38:51.254Z,12.75
2023-01-19T00:41:39.792Z,10.50
2023-01-19T00:44:08.251Z,13.85
2023-01-19T00:46:39.977Z,13.25
2023-01-19T00:49:09.562Z,13.00
2023-01-19T00:51:38.127Z,12.32
2023-01-19T00:54:10.538Z,13.32
2023-01-19T00:56:44.585Z,13.77
2023-01-19T00:59:13.300Z,12.88
2023-01-19T01:01:45.406Z,14.93
2023-01-19T01:04:15.510Z,14.25
2023-01-19T01:06:43.761Z,12.27
2023-01-19T01:09:12.971Z,13.20
2023-01-19T01:11:42.334Z,12.80
2023-01-19T01:14:11.475Z,13.30
2023-01-19T01:16:42.980Z,14.02
2023-01-19T01:19:12.191Z,14.23
2023-01-19T01:21:45.030Z,11.70
2023-01-19T01:26:41.349Z,12.20
2023-01-19T01:29:09.645Z,14.13
2023-01-19T01:31:40.268Z,11.75
2023-01-19T01:34:10.057Z,13.43
2023-01-19T01:36:38.532Z,15.10
2023-01-19T01:39:08.148Z,15.02
2023-01-19T01:41:37.684Z,13.93
2023-01-19T01:44:08.314Z,13.88
2023-01-19T01:46:37.574Z,9.43
2023-01-19T01:49:11.512Z,13.77
2023-01-19T01:51:43.501Z,14.73
2023-01-19T01:54:17.560Z,14.98
2023-01-19T01:56:49.111Z,14.48
2023-01-19T01:59:27.050Z,13.82
2023-01-19T02:02:14.758Z,14.18
2023-01-19T02:04:49.189Z,14.50
2023-01-19T02:07:48.438Z,13.07
2023-01-19T02:10:34.714Z,15.07
2023-01-19T02:13:23.028Z,14.10
2023-01-19T02:16:01.084Z,12.95
2023-01-19T02:18:32.065Z,14.38
2023-01-19T02:21:10.551Z,15.90
2023-01-19T02:23:44.049Z,17.05
2023-01-19T02:26:17.378Z,16.27
2023-01-19T02:28:49.064Z,17.42
2023-01-19T02:31:17.655Z,17.40
2023-01-19T02:33:48.578Z,17.15
2023-01-19T02:36:20.923Z,17.88
2023-01-19T02:38:52.825Z,16.83
2023-01-19T02:41:24.467Z,16.90
2023-01-19T02:43:55.012Z,16.40
2023-01-19T02:46:23.480Z,17.75
2023-01-19T02:48:54.390Z,18.02
2023-01-19T02:51:25.464Z,17.65
2023-01-19T02:54:20.206Z,16.35
2023-01-19T02:57:39.223Z,16.17
2023-01-19T03:00:20.290Z,17.05
2023-01-19T03:03:06.335Z,17.75
2023-01-19T03:05:47.590Z,17.45
2023-01-19T03:08:31.150Z,18.40
2023-01-19T03:11:03.447Z,18.20
2023-01-19T03:13:43.142Z,13.65
2023-01-19T03:16:17.235Z,17.98
2023-01-19T03:18:56.775Z,19.17
2023-01-19T03:21:28.140Z,18.05
2023-01-19T03:24:02.835Z,18.05
2023-01-19T03:26:38.235Z,18.10
2023-01-19T03:29:10.704Z,18.05
2023-01-19T03:31:40.885Z,18.55
2023-01-19T03:34:16.427Z,19.27
2023-01-19T03:36:48.223Z,19.55
2023-01-19T03:39:23.050Z,17.50
2023-01-19T03:41:55.688Z,18.73
2023-01-19T03:44:25.494Z,18.55
2023-01-19T03:47:02.135Z,18.58
2023-01-19T03:49:34.816Z,18.40
2023-01-19T03:52:03.131Z,18.48
2023-01-19T03:54:33.542Z,19.15
2023-01-19T03:57:03.998Z,19.25
2023-01-19T03:59:32.377Z,17.73
2023-01-19T04:02:01.027Z,19.98
2023-01-19T04:04:30.301Z,18.48
2023-01-19T04:07:00.146Z,18.73
2023-01-19T04:09:31.837Z,19.77
2023-01-19T04:12:02.026Z,18.80
2023-01-19T04:14:31.874Z,18.85
2023-01-19T04:17:00.280Z,17.48
2023-01-19T04:19:29.206Z,17.98
2023-01-19T04:21:59.861Z,17.67
2023-01-19T04:24:28.321Z,17.88
2023-01-19T04:26:59.678Z,18.60
2023-01-19T04:29:32.647Z,16.92
2023-01-19T04:32:03.947Z,17.10
2023-01-19T04:34:32.616Z,16.95
2023-01-19T04:37:00.805Z,18.73
2023-01-19T04:39:29.337Z,17.85
2023-01-19T04:42:00.634Z,17.80
2023-01-19T04:44:30.387Z,18.40
2023-01-19T04:46:58.762Z,18.17
2023-01-19T04:49:28.644Z,17.15
2023-01-19T04:51:57.927Z,16.73
2023-01-19T04:54:27.623Z,16.77
2023-01-19T04:56:56.024Z,15.63
2023-01-19T04:59:27.454Z,18.38
2023-01-19T05:01:57.968Z,17.40
2023-01-19T05:04:28.827Z,17.83
2023-01-19T05:06:58.279Z,17.98
2023-01-19T05:09:27.397Z,16.77
2023-01-19T05:11:56.039Z,17.90
2023-01-19T05:14:25.608Z,17.35
2023-01-19T05:16:54.345Z,18.25
2023-01-19T05:19:24.100Z,16.85
2023-01-19T05:21:54.435Z,17.58
2023-01-19T05:24:22.863Z,17.33
2023-01-19T05:26:55.941Z,17.15
2023-01-19T05:29:24.420Z,17.73
2023-01-19T05:31:53.177Z,18.20
2023-01-19T05:34:21.856Z,18.45
2023-01-19T05:36:51.076Z,18.40
2023-01-19T05:39:20.465Z,18.20
2023-01-19T05:41:51.933Z,18.73
2023-01-19T05:44:23.068Z,16.88
2023-01-19T05:46:52.660Z,18.25
2023-01-19T05:49:22.483Z,18.48
2023-01-19T05:51:50.701Z,18.33
2023-01-19T05:54:19.211Z,18.33
2023-01-19T05:56:49.671Z,18.27
2023-01-19T05:59:24.235Z,18.15
2023-01-19T06:01:54.438Z,15.98
2023-01-19T06:04:23.244Z,18.50
2023-01-19T06:06:52.031Z,17.83
2023-01-19T06:09:40.401Z,17.90
2023-01-19T06:12:23.662Z,17.75
2023-01-19T06:14:53.257Z,19.83
2023-01-19T06:17:32.312Z,17.88
2023-01-19T06:20:02.553Z,15.60
2023-01-19T06:22:33.003Z,17.80
2023-01-19T06:25:03.696Z,19.27
2023-01-19T06:27:33.691Z,16.42
2023-01-19T06:30:02.137Z,19.67
2023-01-19T06:32:31.530Z,19.65
2023-01-19T06:35:00.348Z,18.90
2023-01-19T06:37:30.662Z,16.67
2023-01-19T06:39:58.994Z,18.02
2023-01-19T06:42:29.545Z,19.30
2023-01-19T06:44:59.307Z,17.13
2023-01-19T06:47:28.519Z,17.02
2023-01-19T06:49:58.502Z,18.23
2023-01-19T06:52:27.077Z,17.23
2023-01-19T06:54:57.848Z,17.25
2023-01-19T06:57:27.131Z,17.98
2023-01-19T06:59:55.770Z,17.80
2023-01-19T07:02:28.553Z,17.75
2023-01-19T07:04:57.550Z,16.90
2023-01-19T07:07:26.180Z,19.38
2023-01-19T07:09:55.352Z,17.13
2023-01-19T07:12:23.929Z,16.85
2023-01-19T07:14:57.303Z,16.38
2023-01-19T07:17:29.768Z,16.83
2023-01-19T07:20:01.325Z,16.73
2023-01-19T07:22:32.362Z,15.93
2023-01-19T07:25:02.523Z,15.43
2023-01-19T07:27:31.073Z,15.77
2023-01-19T07:30:02.071Z,15.57
2023-01-19T07:32:32.406Z,13.68
2023-01-19T07:35:03.184Z,15.88
2023-01-19T07:37:32.032Z,15.40
2023-01-19T07:40:01.829Z,15.32
2023-01-19T07:42:30.100Z,15.77
2023-01-19T07:45:01.232Z,15.52
2023-01-19T07:47:29.924Z,14.63
2023-01-19T07:50:03.445Z,12.93
2023-01-19T07:52:35.783Z,16.65
2023-01-19T07:55:07.767Z,15.95
2023-01-19T07:57:43.344Z,15.67
2023-01-19T08:00:14.544Z,14.32
2023-01-19T08:02:43.854Z,14.00
2023-01-19T08:05:14.316Z,15.20
2023-01-19T08:07:46.302Z,15.65
2023-01-19T08:10:16.753Z,16.67
2023-01-19T08:12:44.892Z,15.70
2023-01-19T08:15:13.597Z,16.52
2023-01-19T08:17:41.561Z,14.50
2023-01-19T08:20:12.675Z,15.27
2023-01-19T08:22:44.988Z,16.05
2023-01-19T08:25:13.404Z,14.63
2023-01-19T08:27:44.688Z,12.88
2023-01-19T08:30:13.364Z,14.27
2023-01-19T08:32:41.883Z,14.60
2023-01-19T08:35:11.049Z,10.52
2023-01-19T08:37:39.009Z,15.68
2023-01-19T08:40:10.915Z,14.88
2023-01-19T08:42:39.674Z,15.00
2023-01-19T08:45:09.281Z,14.73
2023-01-19T08:47:37.997Z,14.13
2023-01-19T08:50:07.568Z,10.65
2023-01-19T08:52:38.146Z,13.73
2023-01-19T08:55:12.591Z,13.75
2023-01-19T08:57:41.010Z,13.07
2023-01-19T09:00:11.092Z,13.32
2023-01-19T09:02:41.504Z,14.02
2023-01-19T09:05:09.996Z,12.50
2023-01-19T09:07:38.328Z,13.75
2023-01-19T09:10:07.971Z,13.25
2023-01-19T09:12:39.252Z,12.48
2023-01-19T09:15:08.416Z,12.60
2023-01-19T09:17:37.243Z,12.75
2023-01-19T09:20:06.156Z,12.30
2023-01-19T09:22:34.418Z,12.63
2023-01-19T09:25:02.611Z,11.95
2023-01-19T09:27:30.797Z,12.98
2023-01-19T09:30:00.333Z,12.95
2023-01-19T09:32:30.582Z,12.95
2023-01-19T09:34:58.723Z,13.00
2023-01-19T09:37:26.882Z,13.90
2023-01-19T09:39:55.099Z,12.15
2023-01-19T09:42:37.565Z,10.93
2023-01-19T09:45:14.869Z,12.63
2023-01-19T09:47:43.666Z,13.05
2023-01-19T09:50:27.179Z,13.43
2023-01-19T09:53:01.386Z,12.43
2023-01-19T09:55:30.982Z,12.30
2023-01-19T09:57:59.424Z,12.40
2023-01-19T10:00:33.207Z,12.32
2023-01-19T10:03:09.563Z,12.93
2023-01-19T10:05:44.875Z,12.38
2023-01-19T10:08:20.545Z,12.50
2023-01-19T10:10:54.017Z,12.13
2023-01-19T10:13:31.356Z,12.75
2023-01-19T10:16:08.012Z,9.88
2023-01-19T10:18:47.707Z,11.70
2023-01-19T10:21:21.482Z,7.45
2023-01-19T10:23:57.178Z,10.95
2023-01-19T10:26:28.149Z,12.27
2023-01-19T10:29:02.950Z,13.48
2023-01-19T10:31:37.374Z,10.52
2023-01-19T10:34:05.514Z,12.38
2023-01-19T10:36:45.149Z,13.18
2023-01-19T10:39:19.208Z,13.18
2023-01-19T10:41:51.921Z,14.80
2023-01-19T10:44:25.574Z,13.20
2023-01-19T10:46:56.951Z,13.88
2023-01-19T10:49:29.498Z,13.10
2023-01-19T10:51:59.518Z,11.95
2023-01-19T10:54:29.541Z,11.50
2023-01-19T10:57:02.754Z,13.90
2023-01-19T10:59:37.401Z,11.95
2023-01-19T11:02:22.770Z,11.73
2023-01-19T11:04:53.137Z,11.55
2023-01-19T11:07:25.353Z,10.85
2023-01-19T11:10:21.214Z,11.70
2023-01-19T11:13:03.213Z,11.25
2023-01-19T11:15:36.080Z,11.02
2023-01-19T11:18:07.620Z,11.73
2023-01-19T11:20:49.720Z,9.85
2023-01-19T11:23:26.541Z,9.70
2023-01-19T11:25:57.691Z,9.93
2023-01-19T11:28:29.539Z,9.93
2023-01-19T11:30:59.162Z,9.93
2023-01-19T11:33:35.985Z,8.80
2023-01-19T11:36:16.327Z,9.95
2023-01-19T11:38:46.183Z,9.43
2023-01-19T11:41:20.566Z,8.93
2023-01-19T11:43:51.295Z,9.57
2023-01-19T11:46:19.862Z,10.30
2023-01-19T11:48:57.360Z,9.13
2023-01-19T11:51:29.861Z,8.65
2023-01-19T11:54:00.551Z,10.38
2023-01-19T11:56:30.579Z,9.05
2023-01-19T11:59:01.015Z,8.85
2023-01-19T12:01:32.683Z,9.27
2023-01-19T12:04:05.629Z,8.27
2023-01-19T12:06:37.944Z,8.95
2023-01-19T12:09:13.329Z,7.57
2023-01-19T12:11:45.721Z,9.38
2023-01-19T12:14:20.508Z,8.32
2023-01-19T12:16:49.087Z,8.02
2023-01-19T12:19:23.328Z,9.50
2023-01-19T12:21:52.454Z,8.50
2023-01-19T12:24:28.701Z,9.02
2023-01-19T12:26:58.956Z,8.95
2023-01-19T12:29:30.244Z,8.60
2023-01-19T12:32:20.005Z,7.93
2023-01-19T12:34:52.305Z,10.00
2023-01-19T12:37:41.788Z,9.40
2023-01-19T12:40:26.071Z,8.00
2023-01-19T12:43:02.189Z,8.50
2023-01-19T12:45:33.365Z,7.47
2023-01-19T12:48:03.448Z,8.93
2023-01-19T12:50:38.067Z,9.05
2023-01-19T12:53:17.095Z,7.35
2023-01-19T12:55:46.851Z,7.88
2023-01-19T12:58:18.961Z,7.95
2023-01-19T13:00:50.423Z,7.63
2023-01-19T13:03:44.884Z,7.55
2023-01-19T13:06:14.241Z,6.63
2023-01-19T13:09:06.477Z,6.78
2023-01-19T13:11:35.913Z,6.70
2023-01-19T13:14:37.135Z,7.55
2023-01-19T13:17:24.468Z,7.35
2023-01-19T13:20:07.276Z,7.07
2023-01-19T13:23:02.379Z,7.38
2023-01-19T13:25:35.374Z,7.05
2023-01-19T13:30:37.346Z,6.65
2023-01-19T13:33:23.528Z,6.97
2023-01-19T13:36:00.979Z,6.72
2023-01-19T13:38:32.967Z,7.47
2023-01-19T13:41:03.145Z,6.40
2023-01-19T13:43:35.820Z,6.75
2023-01-19T13:46:04.418Z,6.90
2023-01-19T13:48:33.373Z,7.18
2023-01-19T13:51:04.674Z,6.57
2023-01-19T13:53:36.957Z,7.20
2023-01-19T13:56:23.311Z,6.88
2023-01-19T13:59:04.630Z,5.78
2023-01-19T14:01:33.708Z,6.43
2023-01-19T14:04:02.505Z,6.95
2023-01-19T14:06:40.033Z,7.35
2023-01-19T14:09:16.802Z,6.32
2023-01-19T14:11:46.391Z,7.15
2023-01-19T14:14:27.831Z,6.93
2023-01-19T14:16:56.208Z,7.15
2023-01-19T14:19:25.858Z,6.68
2023-01-19T14:22:01.962Z,6.80
2023-01-19T14:24:35.561Z,6.55
2023-01-19T14:27:34.825Z,6.28
2023-01-19T14:30:21.440Z,6.72
2023-01-19T14:32:50.031Z,6.10
2023-01-19T14:35:26.252Z,6.45
2023-01-19T14:37:55.559Z,6.38
2023-01-19T14:40:39.610Z,6.13
2023-01-19T14:43:07.867Z,5.78
2023-01-19T14:45:41.098Z,5.78
2023-01-19T14:48:19.315Z,5.25
2023-01-19T14:51:02.512Z,6.30
2023-01-19T14:53:37.186Z,5.63
2023-01-19T14:56:11.797Z,6.13
2023-01-19T14:58:42.416Z,6.18
2023-01-19T15:01:12.914Z,5.90
2023-01-19T15:03:45.438Z,5.90
2023-01-19T15:06:19.071Z,5.13
2023-01-19T15:08:52.003Z,5.18
2023-01-19T15:11:24.457Z,5.10
2023-01-19T15:13:52.959Z,5.47
2023-01-19T15:16:21.743Z,5.38
2023-01-19T15:18:51.143Z,4.90
2023-01-19T15:21:23.404Z,5.60
2023-01-19T15:23:54.254Z,6.50
2023-01-19T15:26:26.764Z,5.63
2023-01-19T15:28:55.697Z,5.45
2023-01-19T15:31:26.483Z,5.40
2023-01-19T15:33:58.393Z,5.43
2023-01-19T15:36:26.728Z,5.88
2023-01-19T15:38:57.116Z,5.32
2023-01-19T15:41:29.809Z,5.05
2023-01-19T15:43:58.215Z,5.15
2023-01-19T15:46:27.642Z,5.22
2023-01-19T15:48:56.235Z,5.20
2023-01-19T15:51:26.857Z,5.20
2023-01-19T15:53:58.857Z,5.80
2023-01-19T15:56:32.596Z,5.72
2023-01-19T15:59:01.299Z,6.22
2023-01-19T16:01:32.192Z,6.85
2023-01-19T16:04:02.510Z,6.50
2023-01-19T16:06:33.266Z,5.93
2023-01-19T16:09:05.079Z,6.28
2023-01-19T16:11:37.629Z,5.63
2023-01-19T16:14:08.354Z,6.18
2023-01-19T16:16:36.570Z,5.53
2023-01-19T16:19:05.340Z,5.80
2023-01-19T16:21:35.161Z,4.93
2023-01-19T16:24:03.558Z,5.15
2023-01-19T16:26:34.264Z,5.53
2023-01-19T16:29:07.949Z,5.40
2023-01-19T16:31:36.585Z,5.03
2023-01-19T16:34:05.439Z,5.80
2023-01-19T16:36:36.521Z,5.20
2023-01-19T16:39:07.332Z,5.20
2023-01-19T16:41:38.939Z,4.85
2023-01-19T16:44:14.161Z,5.38
2023-01-19T16:46:45.140Z,4.88
2023-01-19T16:49:18.975Z,4.35
2023-01-19T16:51:47.830Z,4.75
2023-01-19T16:54:22.814Z,4.90
2023-01-19T16:56:51.447Z,5.30
2023-01-19T16:59:22.719Z,5.10
2023-01-19T17:01:54.977Z,4.57
2023-01-19T17:04:25.042Z,5.13
2023-01-19T17:06:54.827Z,4.85
2023-01-19T17:09:25.559Z,4.90
2023-01-19T17:11:54.557Z,5.57
2023-01-19T17:14:26.989Z,5.07
2023-01-19T17:16:56.019Z,5.10
2023-01-19T17:19:24.452Z,4.28
2023-01-19T17:21:52.768Z,4.43
2023-01-19T17:24:21.608Z,4.80
2023-01-19T17:26:50.095Z,4.70
2023-01-19T17:29:19.407Z,5.07
2023-01-19T17:31:51.481Z,4.47
2023-01-19T17:34:23.133Z,5.80
2023-01-19T17:36:52.397Z,4.38
2023-01-19T17:39:20.943Z,4.53
2023-01-19T17:41:50.352Z,5.50
2023-01-19T17:44:18.628Z,5.35
2023-01-19T17:46:47.195Z,5.60
2023-01-19T17:49:17.021Z,5.35
2023-01-19T17:51:46.102Z,5.43
2023-01-19T17:54:14.869Z,6.10
2023-01-19T17:56:44.398Z,5.15
2023-01-19T17:59:15.234Z,5.93
2023-01-19T18:01:45.566Z,5.57
2023-01-19T18:04:13.992Z,6.20
2023-01-19T18:06:43.315Z,8.43
2023-01-19T18:09:11.806Z,9.00
2023-01-19T18:11:45.172Z,8.30
2023-01-19T18:14:15.752Z,7.82
2023-01-19T18:16:47.240Z,8.20
2023-01-19T18:19:18.311Z,7.10
2023-01-19T18:21:51.443Z,6.53
2023-01-19T18:24:22.492Z,6.38
2023-01-19T18:26:55.518Z,6.47
2023-01-19T18:29:25.199Z,6.20
2023-01-19T18:31:56.401Z,6.55
2023-01-19T18:34:25.516Z,7.20
2023-01-19T18:36:55.387Z,6.78
2023-01-19T18:39:23.920Z,6.93
2023-01-19T18:41:52.109Z,6.40
2023-01-19T18:44:20.909Z,7.20
2023-01-19T18:46:49.210Z,6.95
2023-01-19T18:49:17.696Z,6.93
2023-01-19T18:51:53.418Z,7.07
2023-01-19T18:54:23.223Z,6.40
2023-01-19T18:56:52.507Z,6.00
2023-01-19T18:59:21.112Z,5.47
2023-01-19T19:01:49.961Z,6.25
2023-01-19T19:04:19.465Z,5.80
2023-01-19T19:06:50.551Z,6.15
2023-01-19T19:09:19.301Z,5.72
2023-01-19T19:11:49.361Z,5.95
2023-01-19T19:14:17.581Z,6.20
2023-01-19T19:16:49.720Z,6.80
2023-01-19T19:19:18.773Z,7.47
2023-01-19T19:21:58.918Z,7.18
2023-01-19T19:24:27.192Z,7.28
2023-01-19T19:26:57.971Z,6.53
2023-01-19T19:29:27.178Z,9.98
2023-01-19T19:31:58.175Z,8.95
2023-01-19T19:34:29.226Z,7.05
2023-01-19T19:36:59.762Z,6.63
2023-01-19T19:39:30.864Z,7.22
2023-01-19T19:42:00.640Z,5.18
2023-01-19T19:44:29.629Z,9.27
2023-01-19T19:46:58.247Z,10.60
2023-01-19T19:49:27.021Z,6.60
2023-01-19T19:51:56.857Z,8.40
2023-01-19T19:54:27.452Z,8.00
2023-01-19T19:56:57.558Z,5.68
2023-01-19T19:59:28.248Z,6.85
2023-01-19T20:02:01.635Z,7.07
2023-01-19T20:04:33.191Z,6.32
2023-01-19T20:07:01.294Z,6.80
2023-01-19T20:09:33.240Z,6.88
2023-01-19T20:12:03.942Z,6.63
2023-01-19T20:14:34.746Z,6.68
2023-01-19T20:17:03.259Z,6.55
2023-01-19T20:19:32.698Z,8.95
2023-01-19T20:22:01.794Z,10.40
2023-01-19T20:24:30.963Z,6.70
2023-01-19T20:27:00.583Z,8.43
2023-01-19T20:29:31.619Z,7.50
2023-01-19T20:32:01.322Z,7.00
2023-01-19T20:34:33.901Z,7.10
2023-01-19T20:37:03.775Z,9.65
2023-01-19T20:39:34.613Z,7.32
2023-01-19T20:42:05.025Z,6.30
2023-01-19T20:44:35.564Z,7.82
2023-01-19T20:47:06.820Z,7.90
2023-01-19T20:49:35.157Z,6.57
2023-01-19T20:52:05.781Z,6.45
2023-01-19T20:54:36.136Z,6.80
2023-01-19T20:57:04.475Z,7.60
2023-01-19T20:59:34.112Z,9.18
2023-01-19T21:02:02.632Z,10.13
2023-01-19T21:04:32.270Z,8.93
2023-01-19T21:07:02.601Z,10.15
2023-01-19T21:09:38.059Z,10.32
2023-01-19T21:12:07.878Z,11.52
2023-01-19T21:14:36.287Z,11.55
2023-01-19T21:17:04.629Z,12.35
2023-01-19T21:19:35.761Z,12.27
2023-01-19T21:22:05.500Z,13.05
2023-01-19T21:24:39.827Z,16.50
2023-01-19T21:27:15.241Z,13.77
2023-01-19T21:29:46.160Z,13.85
2023-01-19T21:32:14.331Z,12.60
2023-01-19T21:34:45.792Z,12.07
2023-01-19T21:37:16.121Z,12.45
2023-01-19T21:39:44.869Z,11.88
2023-01-19T21:42:13.320Z,11.75
2023-01-19T21:44:42.243Z,11.63
2023-01-19T21:47:11.830Z,11.13
2023-01-19T21:49:41.122Z,11.52
2023-01-19T21:52:11.664Z,11.93
2023-01-19T21:54:40.125Z,11.90
2023-01-19T21:57:08.879Z,11.55
2023-01-19T21:59:42.008Z,10.70
2023-01-19T22:02:13.832Z,10.73
2023-01-19T22:04:44.834Z,10.85
2023-01-19T22:07:16.702Z,10.90
2023-01-19T22:09:44.955Z,11.18
2023-01-19T22:12:13.417Z,11.07
2023-01-19T22:14:41.739Z,9.75
2023-01-19T22:17:11.303Z,9.40
2023-01-19T22:19:40.775Z,9.35
2023-01-19T22:22:09.484Z,8.65
2023-01-19T22:24:42.083Z,8.60
2023-01-19T22:27:10.681Z,8.80
2023-01-19T22:29:41.315Z,7.72
2023-01-19T22:32:11.094Z,7.78
2023-01-19T22:34:43.576Z,8.68
2023-01-19T22:37:12.800Z,8.48
2023-01-19T22:39:44.035Z,8.27
2023-01-19T22:42:11.977Z,8.32
2023-01-19T22:44:40.550Z,8.13
2023-01-19T22:47:11.158Z,7.35
2023-01-19T22:49:42.144Z,7.95
2023-01-19T22:52:10.600Z,7.38
2023-01-19T22:54:40.731Z,7.32
2023-01-19T22:57:16.008Z,6.97
2023-01-19T22:59:44.803Z,7.50
2023-01-19T23:02:13.059Z,7.25
2023-01-19T23:04:41.791Z,8.00
2023-01-19T23:07:10.327Z,8.05
2023-01-19T23:09:39.205Z,8.65
2023-01-19T23:12:09.815Z,8.35
2023-01-19T23:14:38.180Z,7.45
2023-01-19T23:17:08.061Z,7.93
2023-01-19T23:19:37.360Z,7.45
2023-01-19T23:22:05.573Z,8.82
2023-01-19T23:24:37.588Z,8.57
2023-01-19T23:27:07.277Z,8.38
2023-01-19T23:29:37.332Z,9.48
2023-01-19T23:32:08.357Z,9.45
2023-01-19T23:34:40.777Z,9.32
2023-01-19T23:37:11.297Z,8.48
2023-01-19T23:39:40.558Z,8.45
2023-01-19T23:42:09.101Z,9.45
2023-01-19T23:44:51.931Z,8.63
2023-01-19T23:47:24.847Z,7.90
2023-01-19T23:52:21.023Z,7.60
2023-01-19T23:54:49.472Z,8.75
2023-01-19T23:57:18.907Z,9.25
2023-01-19T23:59:48.483Z,7.95
